Time;durP1;ratioP1;P1;durP2;ratioP2;P2;SDS_P1;SDS_P2;PMS_P1;PMS_P2;Temp;Humidity;BMP_temperature;BMP_pressure;BME280_temperature;BME280_humidity;BME280_pressure;Samples;Min_cycle;Max_cycle;Signal;HPM_P1;HPM_P2
2022/07/03 00:00:35;;;;;;;4.53;3.60;;;;;;;18.56;78.53;156131.94;5036763;28;20462;-80
2022/07/03 00:03:01;;;;;;;5.00;3.60;;;;;;;18.56;80.14;156131.94;5050298;28;20530;-80
2022/07/03 00:05:28;;;;;;;4.00;3.37;;;;;;;18.55;77.90;156129.31;5036465;28;21000;-79
2022/07/03 00:07:56;;;;;;;4.87;3.90;;;;;;;18.52;78.32;156122.81;5044673;28;20449;-79
2022/07/03 00:10:23;;;;;;;4.20;3.80;;;;;;;18.49;77.35;156114.97;5048294;28;20573;-79
2022/07/03 00:12:50;;;;;;;4.03;3.00;;;;;;;18.51;77.68;156120.19;5049488;28;20887;-79
2022/07/03 00:15:17;;;;;;;6.30;3.10;;;;;;;18.45;77.36;156104.53;5048999;28;20443;-80
2022/07/03 00:17:43;;;;;;;3.43;3.13;;;;;;;18.44;77.61;156101.91;5050058;28;20428;-81
2022/07/03 00:20:11;;;;;;;3.57;3.20;;;;;;;18.40;80.27;156090.22;5049476;28;20500;-81
2022/07/03 00:22:38;;;;;;;3.33;3.03;;;;;;;18.37;79.61;156082.38;5038234;28;20427;-81
2022/07/03 00:25:08;;;;;;;5.70;4.23;;;;;;;18.34;78.50;156074.56;5046755;28;20478;-80
2022/07/03 00:27:35;;;;;;;4.27;3.20;;;;;;;18.34;78.50;156074.56;5048282;28;20481;-81
2022/07/03 00:30:04;;;;;;;4.00;3.60;;;;;;;18.35;79.77;156078.44;5046594;28;20471;-81
2022/07/03 00:32:31;;;;;;;3.90;3.47;;;;;;;18.32;80.73;156070.63;5049068;28;20521;-81
2022/07/03 00:34:58;;;;;;;4.40;4.00;;;;;;;18.27;81.96;156058.91;5049551;28;20446;-81
2022/07/03 00:37:25;;;;;;;5.67;3.67;;;;;;;18.20;80.17;156040.69;5048684;28;20473;-81
2022/07/03 00:39:52;;;;;;;4.50;4.07;;;;;;;18.16;81.04;156029.00;5044093;28;20546;-81
2022/07/03 00:42:21;;;;;;;3.93;3.50;;;;;;;18.14;80.53;156023.75;5045145;28;20450;-80
2022/07/03 00:44:50;;;;;;;4.33;3.93;;;;;;;18.12;81.07;156019.88;5049620;28;20435;-80
2022/07/03 00:47:18;;;;;;;4.50;3.60;;;;;;;18.11;80.94;156017.25;5047815;28;20477;-80
2022/07/03 00:49:47;;;;;;;8.00;3.43;;;;;;;18.05;80.72;156000.34;5047242;28;21050;-80
2022/07/03 00:52:15;;;;;;;5.57;3.77;;;;;;;18.07;80.22;156006.84;5048965;28;20450;-80
2022/07/03 00:54:45;;;;;;;4.43;3.63;;;;;;;18.07;80.93;156006.84;5032497;28;20439;-80
2022/07/03 00:57:15;;;;;;;3.40;3.10;;;;;;;18.06;80.57;156004.22;5046388;28;20458;-80
2022/07/03 00:59:44;;;;;;;6.30;3.60;;;;;;;18.06;81.34;156002.91;5049156;28;20445;-80
2022/07/03 01:02:16;;;;;;;5.50;3.40;;;;;;;18.01;80.69;155991.22;5049153;28;20430;-80
2022/07/03 01:04:50;;;;;;;4.00;3.53;;;;;;;17.96;81.04;155978.19;5049896;28;20411;-80
2022/07/03 01:07:22;;;;;;;4.77;3.90;;;;;;;17.97;82.77;155980.81;5047242;28;20450;-80
2022/07/03 01:09:56;;;;;;;4.57;3.30;;;;;;;17.94;83.01;155973.00;5045756;28;20470;-80
2022/07/03 01:12:27;;;;;;;3.23;2.90;;;;;;;17.92;81.32;155967.78;5048544;28;20867;-80
2022/07/03 01:15:03;;;;;;;4.50;2.97;;;;;;;17.91;81.07;155965.16;5047568;28;20470;-80
2022/07/03 01:17:33;;;;;;;3.57;3.27;;;;;;;17.90;82.40;155962.56;5052078;28;20484;-80
2022/07/03 01:20:02;;;;;;;4.00;3.00;;;;;;;17.90;82.01;155962.56;5051442;28;20517;-80
2022/07/03 01:22:31;;;;;;;3.40;3.10;;;;;;;17.91;81.99;155965.16;5053240;28;20431;-80
2022/07/03 01:25:10;;;;;;;4.17;3.10;;;;;;;17.87;82.48;155953.47;5052156;28;20937;-80
2022/07/03 01:27:49;;;;;;;3.40;3.10;;;;;;;17.85;82.55;155949.53;5051606;28;20438;-80
2022/07/03 01:30:15;;;;;;;3.07;2.77;;;;;;;17.84;83.58;155945.66;5045128;28;20459;-80
2022/07/03 01:32:43;;;;;;;3.33;3.03;;;;;;;17.84;82.70;155946.97;5052733;28;20446;-81
2022/07/03 01:35:14;;;;;;;3.00;2.67;;;;;;;17.86;83.64;155952.16;5051539;28;20470;-80
2022/07/03 01:37:41;;;;;;;3.23;2.93;;;;;;;17.86;83.74;155952.16;5052151;28;20486;-80
2022/07/03 01:40:09;;;;;;;3.30;3.00;;;;;;;17.86;83.39;155950.84;5050615;28;20795;-80
2022/07/03 01:42:38;;;;;;;3.00;2.70;;;;;;;17.90;84.01;155962.56;5051686;28;20499;-80
2022/07/03 01:45:10;;;;;;;2.97;2.73;;;;;;;17.92;83.98;155966.50;5053348;28;20469;-80
2022/07/03 01:47:39;;;;;;;3.23;2.93;;;;;;;17.89;83.76;155959.97;5050777;28;20512;-80
2022/07/03 01:50:07;;;;;;;3.30;3.00;;;;;;;17.91;83.13;155965.16;5051451;28;20905;-80
2022/07/03 01:52:35;;;;;;;2.90;2.60;;;;;;;17.90;84.14;155961.25;5052437;28;20431;-80
2022/07/03 01:55:02;;;;;;;3.10;2.90;;;;;;;17.89;84.65;155959.97;5052278;28;20867;-80
2022/07/03 01:57:37;;;;;;;3.80;2.80;;;;;;;17.86;84.63;155952.16;5031563;28;20471;-80
2022/07/03 02:00:07;;;;;;;3.20;2.90;;;;;;;17.81;83.85;155939.16;5043916;28;20960;-80
2022/07/03 02:02:43;;;;;;;3.40;3.10;;;;;;;17.78;84.06;155931.31;5051393;28;20445;-80
2022/07/03 02:05:14;;;;;;;3.53;3.10;;;;;;;17.73;83.08;155918.31;5047233;28;20506;-80
2022/07/03 02:07:47;;;;;;;2.80;2.40;;;;;;;17.73;83.91;155918.31;5051007;28;20541;-80
2022/07/03 02:10:17;;;;;;;2.83;2.53;;;;;;;17.71;85.48;155911.81;5052054;28;20451;-80
2022/07/03 02:12:49;;;;;;;2.90;2.70;;;;;;;17.67;84.85;155902.69;5052055;28;20469;-80
2022/07/03 02:15:18;;;;;;;2.90;2.60;;;;;;;17.66;84.84;155900.06;5050966;28;20909;-81
2022/07/03 02:17:47;;;;;;;3.30;2.97;;;;;;;17.64;84.29;155896.16;5048677;28;20548;-80
2022/07/03 02:20:16;;;;;;;3.30;3.00;;;;;;;17.63;84.62;155892.28;5051292;28;20453;-80
2022/07/03 02:22:45;;;;;;;5.77;2.90;;;;;;;17.59;84.75;155881.84;5048061;28;20448;-80
2022/07/03 02:25:17;;;;;;;4.23;3.00;;;;;;;17.56;84.46;155874.03;5050891;28;21080;-80
2022/07/03 02:27:45;;;;;;;3.97;2.97;;;;;;;17.54;84.83;155870.16;5046301;28;20463;-80
2022/07/03 02:30:13;;;;;;;2.83;2.63;;;;;;;17.55;86.41;155872.72;5052152;28;20467;-80
2022/07/03 02:32:45;;;;;;;3.00;2.70;;;;;;;17.55;85.23;155871.47;5050483;28;20455;-80
2022/07/03 02:35:13;;;;;;;2.97;2.53;;;;;;;17.55;86.15;155872.72;5051789;28;20435;-80
2022/07/03 02:37:44;;;;;;;4.40;2.80;;;;;;;17.53;86.34;155866.22;5042886;28;20567;-80
2022/07/03 02:40:20;;;;;;;3.03;2.73;;;;;;;17.49;86.61;155857.09;5037604;28;20536;-80
2022/07/03 02:43:04;;;;;;;3.10;2.90;;;;;;;17.51;86.94;155860.97;5050730;28;20482;-80
2022/07/03 02:45:38;;;;;;;2.87;2.63;;;;;;;17.49;86.58;155855.78;5050611;28;20528;-80
2022/07/03 02:48:12;;;;;;;3.70;3.33;;;;;;;17.50;86.59;155858.38;5050976;28;20443;-80
2022/07/03 02:50:41;;;;;;;3.10;2.80;;;;;;;17.47;87.39;155851.84;5050231;28;20463;-80
2022/07/03 02:53:11;;;;;;;3.30;2.93;;;;;;;17.43;87.39;155841.44;5050538;28;20462;-80
2022/07/03 02:55:43;;;;;;;2.63;2.43;;;;;;;17.38;88.04;155827.13;5048094;28;20784;-80
2022/07/03 02:58:29;;;;;;;5.13;3.50;;;;;;;17.38;89.43;155827.13;5049867;28;20482;-80
2022/07/03 03:00:59;;;;;;;2.83;2.63;;;;;;;17.37;88.10;155825.81;5050798;28;20431;-80
2022/07/03 03:03:30;;;;;;;4.03;3.23;;;;;;;17.37;88.25;155824.50;5050040;28;20454;-80
2022/07/03 03:06:03;;;;;;;2.53;2.33;;;;;;;17.36;87.67;155821.94;5046141;28;20540;-80
2022/07/03 03:08:36;;;;;;;3.97;3.03;;;;;;;17.34;88.90;155818.00;5046257;28;20858;-80
2022/07/03 03:11:07;;;;;;;3.60;3.30;;;;;;;17.31;89.09;155808.91;5046721;28;20567;-80
2022/07/03 03:13:35;;;;;;;3.10;2.50;;;;;;;17.27;88.35;155798.47;5031617;28;20818;-80
2022/07/03 03:16:06;;;;;;;2.73;2.53;;;;;;;17.25;89.03;155793.28;5050960;28;20463;-80
2022/07/03 03:18:36;;;;;;;3.20;2.90;;;;;;;17.21;89.55;155784.16;5039669;28;20466;-80
2022/07/03 03:21:05;;;;;;;3.83;3.43;;;;;;;17.20;90.09;155781.59;5049998;28;20439;-80
2022/07/03 03:23:39;;;;;;;2.70;2.50;;;;;;;17.17;89.87;155772.47;5048787;28;20952;-80
2022/07/03 03:26:06;;;;;;;3.50;3.20;;;;;;;17.14;90.01;155764.66;5050485;28;20512;-80
2022/07/03 03:28:32;;;;;;;3.20;2.90;;;;;;;17.15;90.53;155767.28;5038713;28;20853;-80
2022/07/03 03:30:59;;;;;;;4.33;2.80;;;;;;;17.12;89.82;155760.78;5033303;28;20463;-80
2022/07/03 03:33:26;;;;;;;2.77;2.57;;;;;;;17.14;89.77;155764.66;5047510;28;20949;-80
2022/07/03 03:35:55;;;;;;;3.33;3.03;;;;;;;17.16;89.46;155769.84;5047792;28;20557;-80
2022/07/03 03:38:22;;;;;;;3.43;2.70;;;;;;;17.17;89.54;155772.47;5050251;28;20505;-80
2022/07/03 03:40:49;;;;;;;7.20;2.57;;;;;;;17.17;89.20;155772.47;5051166;28;20521;-80
2022/07/03 03:43:15;;;;;;;3.00;2.70;;;;;;;17.16;89.46;155769.84;5043591;28;20550;-80
2022/07/03 03:45:42;;;;;;;3.20;2.97;;;;;;;17.14;89.92;155765.97;5034566;28;20806;-80
2022/07/03 03:48:09;;;;;;;3.47;2.80;;;;;;;17.13;90.93;155762.06;5034171;28;20459;-80
2022/07/03 03:50:36;;;;;;;3.50;3.20;;;;;;;17.14;90.29;155765.97;5050523;28;20473;-80
2022/07/03 03:53:04;;;;;;;3.50;3.20;;;;;;;17.15;90.44;155767.28;5049904;28;20455;-80
2022/07/03 03:55:30;;;;;;;3.03;2.77;;;;;;;17.19;90.77;155777.66;5051596;28;20488;-80
2022/07/03 03:57:57;;;;;;;3.43;3.10;;;;;;;17.22;90.09;155785.47;5050094;28;20581;-80
2022/07/03 04:00:24;;;;;;;3.27;2.90;;;;;;;17.22;91.08;155786.78;5051823;28;20431;-81
2022/07/03 04:02:51;;;;;;;3.50;3.20;;;;;;;17.24;91.02;155791.97;5044643;28;20513;-81
2022/07/03 04:05:17;;;;;;;2.93;2.70;;;;;;;17.27;90.94;155798.47;5037549;28;20446;-81
2022/07/03 04:07:44;;;;;;;3.27;3.00;;;;;;;17.27;90.14;155799.78;5051652;28;20925;-81
2022/07/03 04:10:12;;;;;;;3.63;3.33;;;;;;;17.30;90.63;155807.63;5050285;28;20558;-81
2022/07/03 04:12:39;;;;;;;3.43;3.13;;;;;;;17.37;91.31;155825.81;5049447;28;20528;-81
2022/07/03 04:15:07;;;;;;;3.10;2.90;;;;;;;17.52;91.05;155864.91;5050525;28;20426;-80
2022/07/03 04:17:33;;;;;;;3.50;3.20;;;;;;;17.80;89.42;155936.53;5050577;28;20608;-81
2022/07/03 04:20:00;;;;;;;3.50;3.20;;;;;;;18.09;88.63;156010.72;5050082;28;20545;-81
2022/07/03 04:22:27;;;;;;;3.87;3.50;;;;;;;18.40;87.53;156090.22;5050408;28;20549;-81
2022/07/03 04:24:53;;;;;;;3.37;3.07;;;;;;;18.70;86.81;156169.69;5051315;28;20875;-81
2022/07/03 04:27:21;;;;;;;4.30;3.70;;;;;;;18.97;84.78;156238.75;5049577;28;21036;-81
2022/07/03 04:29:48;;;;;;;3.73;3.20;;;;;;;19.23;83.55;156306.53;5051001;28;20781;-81
2022/07/03 04:32:27;;;;;;;3.67;3.37;;;;;;;19.42;81.85;156354.78;5048583;28;20536;-81
2022/07/03 04:34:57;;;;;;;4.10;3.50;;;;;;;19.65;80.12;156414.75;5032833;28;20435;-81
2022/07/03 04:37:24;;;;;;;3.60;3.30;;;;;;;19.83;79.44;156460.41;5029017;28;20957;-81
2022/07/03 04:39:50;;;;;;;3.47;3.17;;;;;;;20.08;78.66;156524.25;5056692;28;20455;-81
2022/07/03 04:42:17;;;;;;;4.13;3.57;;;;;;;20.17;77.47;156549.06;5050315;28;20526;-81
2022/07/03 04:44:45;;;;;;;4.87;3.30;;;;;;;20.45;76.65;156620.84;5049698;28;20555;-81
2022/07/03 04:47:12;;;;;;;3.53;3.23;;;;;;;20.78;76.16;156705.66;5049814;28;20450;-81
2022/07/03 04:49:39;;;;;;;4.07;3.17;;;;;;;20.98;75.29;156757.81;5051667;28;20437;-81
2022/07/03 04:52:06;;;;;;;3.20;2.90;;;;;;;21.23;74.19;156823.16;5052149;28;20558;-81
2022/07/03 04:54:36;;;;;;;4.00;3.70;;;;;;;21.49;72.73;156889.69;5049487;28;20447;-81
2022/07/03 04:57:04;;;;;;;3.80;2.83;;;;;;;21.60;72.39;156918.44;5055031;28;20488;-82
2022/07/03 04:59:31;;;;;;;3.63;3.33;;;;;;;21.66;71.55;156935.38;5053107;28;20458;-82
2022/07/03 05:01:59;;;;;;;3.57;3.27;;;;;;;21.78;71.10;156965.41;5052401;28;20462;-82
2022/07/03 05:04:25;;;;;;;2.90;2.60;;;;;;;21.96;69.84;157011.16;5055266;28;20545;-82
2022/07/03 05:06:52;;;;;;;3.20;3.00;;;;;;;22.24;69.80;157084.31;5073129;28;20442;-82
2022/07/03 05:09:19;;;;;;;3.30;3.00;;;;;;;22.49;68.78;157149.59;5068634;28;21114;-82
2022/07/03 05:11:46;;;;;;;3.20;3.00;;;;;;;22.61;68.24;157179.66;5046782;28;20463;-82
2022/07/03 05:14:15;;;;;;;3.13;2.83;;;;;;;22.78;67.44;157225.41;5049376;28;20454;-82
2022/07/03 05:16:42;;;;;;;3.03;2.73;;;;;;;22.82;66.75;157234.59;5054630;28;20486;-82
2022/07/03 05:19:10;;;;;;;3.13;2.93;;;;;;;23.07;66.23;157298.56;5045469;28;20494;-82
2022/07/03 05:21:37;;;;;;;2.97;2.77;;;;;;;23.22;65.06;157337.81;5052482;28;20438;-82
2022/07/03 05:24:04;;;;;;;3.47;3.17;;;;;;;23.26;65.06;157348.25;5053928;28;20519;-83
2022/07/03 05:26:30;;;;;;;3.20;2.90;;;;;;;23.47;64.31;157404.50;5053336;28;20909;-84
2022/07/03 05:29:00;;;;;;;2.83;2.60;;;;;;;23.50;64.55;157411.03;5036882;28;20457;-83
2022/07/03 05:31:27;;;;;;;4.27;2.97;;;;;;;23.61;64.34;157439.81;5053385;28;20505;-83
2022/07/03 05:33:54;;;;;;;3.07;2.77;;;;;;;23.79;64.19;157486.88;5053773;28;20806;-83
2022/07/03 05:36:22;;;;;;;3.20;3.00;;;;;;;23.98;63.23;157536.56;5054154;28;20545;-83
2022/07/03 05:41:33;;;;;;;3.40;3.10;;;;;;;24.58;61.51;157690.91;5053949;28;20833;-84
2022/07/03 05:44:00;;;;;;;3.10;2.90;;;;;;;24.70;60.59;157722.31;5053909;28;20470;-83
2022/07/03 05:46:26;;;;;;;2.63;2.43;;;;;;;24.89;59.89;157772.03;5052991;28;20439;-83
2022/07/03 05:48:53;;;;;;;3.83;2.70;;;;;;;25.10;59.94;157825.75;5052770;28;20469;-84
2022/07/03 05:51:21;;;;;;;3.57;3.27;;;;;;;25.26;59.14;157868.88;5054997;28;20561;-85
2022/07/03 05:53:48;;;;;;;3.23;2.90;;;;;;;25.40;59.70;157904.22;5036525;28;20474;-83
2022/07/03 05:56:15;;;;;;;3.10;2.80;;;;;;;25.43;58.35;157913.41;5053983;28;20834;-83
2022/07/03 05:58:42;;;;;;;3.67;3.23;;;;;;;25.65;57.65;157968.44;5047773;28;20589;-83
2022/07/03 06:01:09;;;;;;;3.73;2.73;;;;;;;25.68;57.51;157976.28;5049633;28;20440;-84
2022/07/03 06:03:35;;;;;;;3.07;2.87;;;;;;;25.85;57.06;158020.78;5058359;28;20487;-83
2022/07/03 06:06:02;;;;;;;4.23;2.63;;;;;;;25.96;57.33;158049.59;5053728;28;20449;-83
2022/07/03 06:08:30;;;;;;;2.63;2.43;;;;;;;26.11;55.37;158088.84;5052339;28;20552;-83
2022/07/03 06:10:57;;;;;;;2.60;2.40;;;;;;;26.36;56.39;158153.06;5052748;28;20961;-83
2022/07/03 06:13:24;;;;;;;2.90;2.70;;;;;;;26.58;54.68;158212.00;5054828;28;20431;-84
2022/07/03 06:15:53;;;;;;;2.73;2.53;;;;;;;26.56;55.51;158205.44;5052918;28;20439;-83
2022/07/03 06:18:20;;;;;;;3.03;2.73;;;;;;;26.81;54.50;158269.69;5053769;28;20554;-85
2022/07/03 06:20:46;;;;;;;3.53;2.90;;;;;;;26.92;54.50;158299.84;5042900;28;20873;-83
2022/07/03 06:23:13;;;;;;;2.87;2.67;;;;;;;26.89;53.76;158290.66;5054782;28;20500;-84
2022/07/03 06:25:44;;;;;;;2.87;2.67;;;;;;;26.94;54.41;158303.75;5052901;28;20466;-85
2022/07/03 06:28:14;;;;;;;3.37;2.40;;;;;;;26.96;53.83;158308.97;5016555;28;20455;-85
2022/07/03 06:30:43;;;;;;;3.33;2.90;;;;;;;27.00;53.89;158319.47;5033124;28;20432;-84
2022/07/03 06:33:13;;;;;;;2.70;2.50;;;;;;;27.13;54.87;158353.53;5035547;28;20448;-85
2022/07/03 06:35:55;;;;;;;2.97;2.73;;;;;;;27.32;53.09;158403.34;5070206;28;20441;-85
2022/07/03 06:38:22;;;;;;;2.80;2.60;;;;;;;27.43;52.38;158432.19;5049391;28;20861;-76
2022/07/03 06:40:50;;;;;;;2.90;2.70;;;;;;;27.58;51.95;158471.53;5052975;28;20463;-76
2022/07/03 06:43:17;;;;;;;3.10;2.80;;;;;;;27.73;52.28;158510.84;5052900;28;20453;-75
2022/07/03 06:45:44;;;;;;;2.73;2.53;;;;;;;28.08;50.97;158600.03;5051958;28;20457;-76
2022/07/03 06:48:10;;;;;;;3.13;2.70;;;;;;;28.00;51.30;158579.00;5052581;28;20443;-76
2022/07/03 06:50:37;;;;;;;3.20;2.90;;;;;;;28.22;51.45;158636.75;5052016;28;20416;-76
2022/07/03 06:53:04;;;;;;;2.80;2.60;;;;;;;28.33;50.43;158665.56;5047535;28;20805;-76
2022/07/03 06:55:31;;;;;;;2.83;2.63;;;;;;;28.21;50.57;158634.09;5048721;28;20474;-76
2022/07/03 06:57:59;;;;;;;3.00;2.80;;;;;;;28.41;49.92;158686.53;5050344;28;20491;-75
2022/07/03 07:00:25;;;;;;;2.83;2.63;;;;;;;28.62;50.87;158741.66;5052460;28;20530;-76
2022/07/03 07:02:52;;;;;;;2.97;2.77;;;;;;;28.75;49.21;158775.75;5051109;28;20551;-76
2022/07/03 07:05:19;;;;;;;2.70;2.50;;;;;;;28.81;49.73;158790.19;5049033;28;20905;-76
2022/07/03 07:07:46;;;;;;;2.50;2.30;;;;;;;29.03;48.90;158847.91;5050743;28;20549;-76
2022/07/03 07:10:13;;;;;;;2.90;2.70;;;;;;;29.19;48.61;158889.91;5046513;28;20436;-76
2022/07/03 07:12:39;;;;;;;3.13;2.60;;;;;;;29.49;46.60;158968.66;5039301;28;20513;-76
2022/07/03 07:15:08;;;;;;;2.50;2.30;;;;;;;29.58;46.40;158992.28;5047759;28;20466;-74
2022/07/03 07:17:35;;;;;;;2.83;2.63;;;;;;;29.65;46.58;159009.38;5050327;28;20532;-74
2022/07/03 07:20:02;;;;;;;2.67;2.33;;;;;;;29.73;47.08;159030.38;5046182;28;20958;-74
2022/07/03 07:22:29;;;;;;;2.30;2.10;;;;;;;29.71;45.25;159025.09;5051532;28;20419;-74
2022/07/03 07:24:55;;;;;;;2.63;2.43;;;;;;;29.92;45.88;159078.94;5051147;28;20816;-74
2022/07/03 07:27:22;;;;;;;2.27;2.07;;;;;;;30.11;44.35;159128.81;5038556;28;20487;-74
2022/07/03 07:29:49;;;;;;;2.60;2.40;;;;;;;30.15;43.93;159140.66;5038948;28;20528;-74
2022/07/03 07:32:17;;;;;;;2.27;2.17;;;;;;;30.12;42.55;159131.47;5050023;28;21160;-74
2022/07/03 07:34:44;;;;;;;2.70;2.50;;;;;;;30.30;44.16;159177.38;5050201;28;20478;-74
2022/07/03 07:37:10;;;;;;;2.03;1.93;;;;;;;30.46;42.14;159219.44;5049493;28;20486;-74
2022/07/03 07:39:37;;;;;;;2.30;2.10;;;;;;;30.23;42.67;159160.34;5050628;28;20438;-74
2022/07/03 07:42:04;;;;;;;2.50;2.30;;;;;;;30.31;43.40;159180.03;5048626;28;20443;-75
2022/07/03 07:44:31;;;;;;;2.10;1.90;;;;;;;30.48;42.92;159224.69;5032747;28;20594;-75
2022/07/03 07:46:58;;;;;;;2.33;2.13;;;;;;;30.61;41.62;159258.81;5032435;28;20509;-75
2022/07/03 07:49:26;;;;;;;3.70;2.30;;;;;;;30.76;41.79;159298.25;5051463;28;20558;-75
2022/07/03 07:51:53;;;;;;;3.27;1.90;;;;;;;30.98;41.22;159356.06;5049752;28;20473;-75
2022/07/03 07:54:19;;;;;;;2.40;2.10;;;;;;;31.28;41.62;159434.88;5051620;28;20461;-75
2022/07/03 07:56:46;;;;;;;2.20;2.00;;;;;;;31.55;41.30;159503.22;5051436;28;20956;-75
2022/07/03 07:59:13;;;;;;;1.93;1.83;;;;;;;31.54;39.58;159501.91;5049339;28;20517;-75
2022/07/03 08:07:10;;;;;;;1.97;1.70;;;;;;;31.84;39.79;159580.75;5050957;28;20450;-75
2022/07/03 08:09:36;;;;;;;2.83;1.90;;;;;;;31.86;38.44;159586.00;5051488;28;20537;-75
2022/07/03 08:12:06;;;;;;;1.93;1.80;;;;;;;31.98;38.29;159616.25;5050918;28;20466;-75
2022/07/03 08:14:33;;;;;;;1.63;1.53;;;;;;;32.14;38.69;159658.34;5048746;28;20847;-75
2022/07/03 08:16:59;;;;;;;2.07;1.60;;;;;;;32.21;38.42;159675.41;5034083;28;20449;-75
2022/07/03 08:19:28;;;;;;;5.30;1.70;;;;;;;32.21;36.64;159675.41;5031124;28;20964;-75
2022/07/03 08:21:54;;;;;;;2.30;1.63;;;;;;;32.31;34.33;159701.69;5049525;28;20540;-75
2022/07/03 08:24:21;;;;;;;1.70;1.60;;;;;;;32.28;36.24;159695.13;5047657;28;20454;-77
2022/07/03 08:26:48;;;;;;;1.70;1.33;;;;;;;32.32;37.63;159704.31;5033547;28;20454;-84
2022/07/03 08:29:15;;;;;;;1.77;1.53;;;;;;;32.27;37.36;159692.50;5050946;28;20514;-76
2022/07/03 08:31:43;;;;;;;1.73;1.53;;;;;;;32.43;36.95;159734.53;5049463;28;20849;-76
2022/07/03 08:34:13;;;;;;;1.50;1.40;;;;;;;32.56;35.93;159767.47;5033414;28;20453;-76
2022/07/03 08:36:47;;;;;;;3.83;1.90;;;;;;;32.61;37.05;159779.28;5051114;28;20403;-76
2022/07/03 08:39:14;;;;;;;1.50;1.40;;;;;;;32.84;34.83;159839.75;5051018;28;20454;-85
2022/07/03 08:41:41;;;;;;;1.70;1.60;;;;;;;32.64;35.62;159788.50;5052803;28;20437;-85
2022/07/03 08:44:09;;;;;;;1.60;1.50;;;;;;;32.36;39.88;159716.13;5036963;28;20831;-85
2022/07/03 08:46:36;;;;;;;2.40;1.63;;;;;;;32.42;37.24;159731.94;5051494;28;20429;-85
2022/07/03 08:49:03;;;;;;;1.53;1.40;;;;;;;32.74;35.11;159814.78;5043609;28;20549;-86
2022/07/03 08:51:33;;;;;;;2.27;1.77;;;;;;;32.73;37.47;159812.16;5036290;28;20480;-86
2022/07/03 08:54:02;;;;;;;3.50;1.60;;;;;;;32.93;33.81;159863.44;5051436;28;20482;-86
2022/07/03 08:56:29;;;;;;;4.37;1.50;;;;;;;33.03;32.96;159889.72;5052654;28;20438;-86
2022/07/03 08:58:58;;;;;;;3.03;1.90;;;;;;;32.66;37.59;159792.44;5047588;28;20478;-86
2022/07/03 09:01:25;;;;;;;2.10;1.67;;;;;;;32.74;36.36;159813.47;5051895;28;20797;-86
2022/07/03 09:03:52;;;;;;;2.70;1.60;;;;;;;32.73;37.38;159810.81;5052631;28;21910;-86
2022/07/03 09:06:20;;;;;;;1.70;1.33;;;;;;;33.04;35.62;159892.38;5052301;28;20451;-86
2022/07/03 09:08:47;;;;;;;1.70;1.60;;;;;;;32.88;37.22;159851.63;5050237;28;20442;-86
2022/07/03 09:11:17;;;;;;;1.80;1.33;;;;;;;32.56;36.26;159766.16;5052505;28;20886;-86
2022/07/03 09:13:44;;;;;;;1.23;1.13;;;;;;;32.72;37.42;159809.53;5051305;28;20513;-86
2022/07/03 09:16:16;;;;;;;1.60;1.50;;;;;;;32.86;35.71;159846.31;5052338;28;20537;-86
2022/07/03 09:18:44;;;;;;;2.00;1.30;;;;;;;32.92;32.55;159860.78;5046580;28;20600;-86
2022/07/03 09:21:11;;;;;;;2.10;1.40;;;;;;;32.81;34.12;159831.84;5044152;28;20426;-77
2022/07/03 09:23:39;;;;;;;1.60;1.50;;;;;;;32.91;31.61;159858.19;5051707;28;20997;-77
2022/07/03 09:26:07;;;;;;;1.30;1.20;;;;;;;32.91;30.85;159858.19;5049330;28;20451;-77
2022/07/03 09:28:51;;;;;;;1.97;0.90;;;;;;;32.67;33.77;159795.09;5050951;28;20449;-77
2022/07/03 09:31:18;;;;;;;2.10;1.80;;;;;;;32.43;33.94;159734.53;5048423;28;20503;-77
2022/07/03 09:33:53;;;;;;;1.50;1.40;;;;;;;32.57;32.87;159768.81;5047070;28;20473;-77
2022/07/03 09:36:22;;;;;;;1.27;1.17;;;;;;;32.71;35.36;159805.56;5049113;28;20632;-77
2022/07/03 09:38:49;;;;;;;1.90;1.40;;;;;;;32.84;33.99;159841.06;5051496;28;20438;-77
2022/07/03 09:41:15;;;;;;;1.77;1.50;;;;;;;32.50;34.17;159751.63;5036144;28;20484;-77
2022/07/03 09:43:44;;;;;;;1.77;1.67;;;;;;;32.51;36.87;159755.56;5053609;28;21430;-77
2022/07/03 09:46:23;;;;;;;1.83;1.63;;;;;;;32.77;32.39;159822.69;5051244;28;20471;-77
2022/07/03 09:48:53;;;;;;;2.77;1.50;;;;;;;33.10;32.21;159909.50;5051392;28;20464;-77
2022/07/03 09:51:23;;;;;;;2.27;1.60;;;;;;;33.09;31.50;159905.56;5054027;28;20450;-77
2022/07/03 09:53:57;;;;;;;2.47;1.50;;;;;;;32.66;34.26;159792.44;5049710;28;20527;-77
2022/07/03 09:56:26;;;;;;;3.23;1.40;;;;;;;32.84;31.30;159839.75;5054085;28;20928;-86
2022/07/03 09:59:08;;;;;;;3.57;1.43;;;;;;;32.79;31.89;159826.59;5054295;28;20482;-86
2022/07/03 10:01:37;;;;;;;1.73;1.20;;;;;;;32.59;32.40;159774.06;5055200;28;20515;-84
2022/07/03 10:04:17;;;;;;;1.27;1.17;;;;;;;32.58;31.79;159772.72;5069397;28;20442;-84
2022/07/03 10:06:48;;;;;;;2.70;1.37;;;;;;;32.51;33.55;159755.56;5054318;28;20465;-84
2022/07/03 10:09:16;;;;;;;1.27;1.17;;;;;;;32.43;34.46;159734.53;5053004;28;20426;-84
2022/07/03 10:11:44;;;;;;;2.60;1.10;;;;;;;32.41;35.73;159727.97;5051058;28;20450;-83
2022/07/03 10:14:14;;;;;;;1.60;1.50;;;;;;;32.09;34.82;159645.16;5051649;28;20478;-85
2022/07/03 10:16:42;;;;;;;1.30;1.20;;;;;;;32.03;36.38;159628.09;5052008;28;21101;-84
2022/07/03 10:19:14;;;;;;;2.60;1.70;;;;;;;31.97;33.06;159612.28;5051636;28;20470;-84
2022/07/03 10:21:43;;;;;;;2.80;1.20;;;;;;;31.51;33.71;159492.75;5052566;28;20469;-84
2022/07/03 10:24:09;;;;;;;1.40;1.30;;;;;;;31.59;32.33;159513.72;5050531;28;20465;-84
2022/07/03 10:26:36;;;;;;;1.83;1.47;;;;;;;31.70;33.62;159542.63;5051024;28;20458;-83
2022/07/03 10:29:03;;;;;;;1.57;1.47;;;;;;;31.80;33.45;159568.91;5047911;28;20458;-83
2022/07/03 10:31:32;;;;;;;1.17;1.07;;;;;;;31.92;33.02;159600.47;5052112;28;20521;-83
2022/07/03 10:34:00;;;;;;;1.20;1.10;;;;;;;31.82;32.94;159574.19;5055655;28;20566;-83
2022/07/03 10:36:28;;;;;;;1.47;1.37;;;;;;;31.79;33.67;159566.28;5049044;28;21704;-83
2022/07/03 10:38:56;;;;;;;1.50;1.40;;;;;;;32.13;32.84;159655.69;5053543;28;20537;-82
2022/07/03 10:46:57;;;;;;;1.30;1.20;;;;;;;31.63;36.06;159525.56;5048597;28;20436;-83
2022/07/03 10:50:02;;;;;;;1.50;1.40;;;;;;;31.50;34.78;159491.41;5050122;28;20461;-76
2022/07/03 10:52:29;;;;;;;1.40;1.30;;;;;;;31.69;35.35;159540.03;5040199;28;20466;-83
2022/07/03 10:54:57;;;;;;;2.07;1.40;;;;;;;32.00;33.50;159621.53;5053671;28;20446;-83
2022/07/03 10:57:25;;;;;;;2.80;1.23;;;;;;;31.81;34.27;159572.88;5052826;28;20473;-83
2022/07/03 11:00:08;;;;;;;1.53;1.43;;;;;;;31.59;35.47;159513.72;5051556;28;20450;-83
2022/07/03 11:02:39;;;;;;;2.03;1.67;;;;;;;31.08;34.55;159382.34;5049212;28;20502;-83
2022/07/03 11:05:12;;;;;;;1.40;1.30;;;;;;;30.71;33.81;159286.41;5046641;28;20463;-83
2022/07/03 11:08:06;;;;;;;1.83;1.73;;;;;;;30.74;34.65;159292.97;5048893;28;20447;-82
2022/07/03 11:10:36;;;;;;;1.57;1.47;;;;;;;30.73;38.10;159291.69;5045849;28;20486;-82
2022/07/03 11:13:04;;;;;;;1.83;1.67;;;;;;;30.72;36.41;159287.72;5051306;28;20467;-82
2022/07/03 11:15:32;;;;;;;1.50;1.40;;;;;;;30.93;36.41;159342.94;5045895;28;20458;-83
2022/07/03 11:18:09;;;;;;;2.10;1.67;;;;;;;30.92;43.71;159340.31;5051331;28;20541;-82
2022/07/03 11:20:57;;;;;;;3.30;1.60;;;;;;;30.89;36.15;159331.06;5044582;28;20469;-83
2022/07/03 11:23:29;;;;;;;1.80;1.70;;;;;;;30.65;35.88;159270.69;5050103;28;20447;-83
2022/07/03 11:25:57;;;;;;;1.73;1.63;;;;;;;30.74;36.80;159294.28;5064498;28;20469;-83
2022/07/03 11:28:50;;;;;;;2.53;1.77;;;;;;;30.91;40.86;159337.69;5047600;28;20443;-83
2022/07/03 11:31:17;;;;;;;2.07;1.80;;;;;;;30.89;40.33;159331.06;5037577;28;20454;-83
2022/07/03 11:33:44;;;;;;;2.00;1.90;;;;;;;30.91;37.37;159337.69;5051637;28;20523;-83
2022/07/03 11:36:12;;;;;;;1.83;1.73;;;;;;;30.64;37.07;159266.72;5046535;28;20500;-83
2022/07/03 11:38:39;;;;;;;1.73;1.63;;;;;;;30.62;38.20;159262.78;5031562;28;20451;-82
2022/07/03 11:41:08;;;;;;;1.57;1.47;;;;;;;30.49;37.22;159227.34;5032262;28;20802;-76
2022/07/03 11:43:35;;;;;;;3.27;1.80;;;;;;;30.35;35.14;159191.84;5032274;28;20982;-75
2022/07/03 11:46:03;;;;;;;3.30;2.87;;;;;;;30.14;37.63;159138.03;5048261;28;20453;-76